Terminal Aerodrome Forecast
Issued by NWS

Home | Current Version | Previous Version | Text Only | Print | Product List | Glossary On
Versions: 1 2 3 4 5 6 7 8 9 10 11 12 13 14 15 16
000
FTUS41 KPBZ 250900 AAA
TAFFKL
TAF AMD
KFKL 250911Z 2509/2606 24008KT 4SM -SHSN BR OVC005
     FM251800 05005KT 2SM -SN OVC006
     FM260200 06005KT 1SM -SN BR OVC004
      AMD LTD TO CLD VIS AND WIND=

USA.gov is the U.S. government's official web portal to all federal, state and local government web resources and services.